Time;durP1;ratioP1;P1;durP2;ratioP2;P2;SDS_P1;SDS_P2;PMS_P1;PMS_P2;Temp;Humidity;BMP_temperature;BMP_pressure;BME280_temperature;BME280_humidity;BME280_pressure;Samples;Min_cycle;Max_cycle;Signal;HPM_P1;HPM_P2
2020/12/22 00:00:47;;;;;;;5.05;4.65;;;;;;;11.28;79.16;98853.84;6221853;23;20076;-86
2020/12/22 00:03:24;;;;;;;5.18;4.78;;;;;;;11.30;79.16;98849.31;6221787;23;20031;-86
2020/12/22 00:05:55;;;;;;;4.75;4.35;;;;;;;11.32;79.16;98850.03;6193934;23;20020;-84
2020/12/22 00:08:27;;;;;;;5.70;5.20;;;;;;;11.34;79.23;98858.63;6191841;23;20477;-85
2020/12/22 00:11:01;;;;;;;5.32;4.85;;;;;;;11.36;79.72;98844.53;6224547;23;20017;-85
2020/12/22 00:13:31;;;;;;;5.20;4.78;;;;;;;11.38;79.37;98848.72;6194997;23;20016;-84
2020/12/22 00:15:58;;;;;;;5.15;4.75;;;;;;;11.41;79.20;98851.13;6219008;23;20063;-86
2020/12/22 00:18:30;;;;;;;5.50;5.10;;;;;;;11.44;79.37;98856.16;6221183;23;20108;-85
2020/12/22 00:20:56;;;;;;;5.68;5.22;;;;;;;11.47;79.61;98852.44;6221306;23;20027;-85
2020/12/22 00:23:22;;;;;;;6.72;6.10;;;;;;;11.51;79.67;98846.00;6194976;23;20039;-86
2020/12/22 00:25:51;;;;;;;6.32;5.82;;;;;;;11.55;79.77;98846.63;6194132;23;20032;-83
2020/12/22 00:28:23;;;;;;;6.07;5.57;;;;;;;11.58;80.13;98856.91;6193562;23;20028;-86
2020/12/22 00:30:49;;;;;;;7.60;7.00;;;;;;;11.60;80.11;98861.09;6193677;23;20447;-87
2020/12/22 00:33:26;;;;;;;6.60;6.10;;;;;;;11.60;80.70;98839.19;6195895;23;20017;-85
2020/12/22 00:35:59;;;;;;;7.07;6.40;;;;;;;11.66;80.52;98838.72;6221098;23;20020;-86
2020/12/22 00:39:00;;;;;;;6.45;5.35;;;;;;;11.75;80.23;98825.78;6128112;23;20029;-84
2020/12/22 00:41:38;;;;;;;6.03;5.43;;;;;;;11.79;80.16;98820.16;6216820;23;20482;-86
2020/12/22 00:44:16;;;;;;;6.72;5.57;;;;;;;11.81;80.28;98820.88;6195227;23;20547;-85
2020/12/22 00:47:03;;;;;;;6.63;5.97;;;;;;;11.85;80.52;98818.84;6192990;23;20056;-86
2020/12/22 00:49:44;;;;;;;5.63;5.13;;;;;;;11.92;80.21;98827.94;6195955;23;20021;-88
2020/12/22 00:52:35;;;;;;;7.32;5.75;;;;;;;11.96;80.33;98804.84;6218214;23;20108;-85
2020/12/22 00:55:17;;;;;;;6.00;5.50;;;;;;;11.97;80.62;98811.78;6195665;23;20088;-86
2020/12/22 00:58:00;;;;;;;5.93;5.43;;;;;;;12.02;80.61;98806.97;6196274;23;20070;-85
2020/12/22 01:01:04;;;;;;;6.03;5.38;;;;;;;12.05;80.59;98800.63;6191329;23;20111;-87
2020/12/22 01:03:48;;;;;;;5.90;4.68;;;;;;;12.10;80.58;98795.84;6192510;23;20016;-88
2020/12/22 01:06:47;;;;;;;5.55;4.95;;;;;;;12.14;80.86;98799.91;6179876;23;20063;-88
2020/12/22 01:09:37;;;;;;;5.45;5.05;;;;;;;12.18;80.71;98790.00;6194174;23;20017;-86
2020/12/22 01:12:33;;;;;;;5.55;5.05;;;;;;;12.20;80.91;98788.91;6190338;23;20062;-86
2020/12/22 01:15:14;;;;;;;6.18;5.68;;;;;;;12.26;80.50;98792.81;6194634;23;20035;-88
2020/12/22 01:17:45;;;;;;;6.85;6.25;;;;;;;12.28;80.43;98795.34;6193232;23;20020;-86
2020/12/22 01:20:11;;;;;;;6.13;5.55;;;;;;;12.31;80.90;98792.47;6193027;23;20016;-85
2020/12/22 01:22:58;;;;;;;7.00;6.40;;;;;;;12.34;80.58;98790.41;6191943;23;20020;-89
2020/12/22 01:26:08;;;;;;;7.10;6.43;;;;;;;12.35;80.99;98797.41;6220053;23;20016;-86
2020/12/22 01:29:00;;;;;;;7.25;6.57;;;;;;;12.42;80.54;98792.47;6192171;23;20021;-86
2020/12/22 01:32:27;;;;;;;7.05;6.45;;;;;;;12.46;80.58;98787.75;6140804;23;20051;-85
2020/12/22 01:35:10;;;;;;;8.05;7.30;;;;;;;12.50;80.71;98786.56;6219838;23;20027;-85
2020/12/22 01:37:50;;;;;;;7.50;6.90;;;;;;;12.50;81.13;98787.41;6192306;23;20095;-86
2020/12/22 01:40:17;;;;;;;8.32;7.53;;;;;;;12.58;80.62;98794.69;6190744;23;20034;-85
2020/12/22 01:42:44;;;;;;;10.95;7.32;;;;;;;12.62;80.52;98779.44;6202613;23;20017;-89
2020/12/22 01:45:13;;;;;;;9.00;8.10;;;;;;;12.64;80.82;98777.53;6221023;23;20321;-88
2020/12/22 01:47:48;;;;;;;10.27;9.35;;;;;;;12.66;81.19;98787.94;6216627;23;20032;-85
2020/12/22 01:50:17;;;;;;;10.38;9.32;;;;;;;12.72;80.70;98777.72;6216762;23;20024;-86
2020/12/22 01:52:44;;;;;;;9.95;9.05;;;;;;;12.75;80.80;98787.22;6190298;23;20023;-86
2020/12/22 01:55:12;;;;;;;10.60;9.30;;;;;;;12.80;80.79;98785.03;6220636;23;20028;-85
2020/12/22 01:57:38;;;;;;;9.48;8.45;;;;;;;12.85;80.80;98777.56;6191930;23;20024;-87
2020/12/22 02:00:06;;;;;;;11.05;9.98;;;;;;;12.88;80.69;98784.38;6216737;23;20028;-85
2020/12/22 02:02:33;;;;;;;10.70;9.73;;;;;;;12.92;80.56;98774.38;6216449;23;20021;-87
2020/12/22 02:05:03;;;;;;;10.73;9.82;;;;;;;12.93;80.62;98782.19;6193108;23;20455;-84
2020/12/22 02:07:30;;;;;;;10.20;9.25;;;;;;;12.96;80.75;98763.47;6191693;23;20452;-86
2020/12/22 02:09:56;;;;;;;9.90;9.00;;;;;;;12.99;80.84;98754.44;6216362;23;20027;-87
2020/12/22 02:12:22;;;;;;;9.85;8.77;;;;;;;13.03;80.72;98750.56;6216080;23;20024;-87
2020/12/22 02:14:48;;;;;;;9.43;8.63;;;;;;;13.07;80.85;98759.06;6190232;23;20031;-87
2020/12/22 02:17:14;;;;;;;8.40;7.70;;;;;;;13.09;80.75;98757.97;6216220;23;20526;-87
2020/12/22 02:19:41;;;;;;;8.10;7.32;;;;;;;13.12;80.88;98754.25;6216142;23;20383;-86
2020/12/22 02:22:07;;;;;;;8.00;7.30;;;;;;;13.16;80.93;98758.31;6189966;23;20347;-86
2020/12/22 02:24:35;;;;;;;9.43;8.55;;;;;;;13.18;80.85;98748.44;6190526;23;20017;-85
2020/12/22 02:27:03;;;;;;;8.00;7.20;;;;;;;13.23;80.71;98745.44;6189792;23;20506;-86
2020/12/22 02:29:30;;;;;;;8.57;7.78;;;;;;;13.25;81.05;98746.13;6216414;23;20025;-86
2020/12/22 02:32:00;;;;;;;7.70;7.00;;;;;;;13.26;80.98;98747.78;6193105;23;20031;-84
2020/12/22 02:34:26;;;;;;;7.72;6.95;;;;;;;13.31;80.99;98731.56;6222508;23;20028;-86
2020/12/22 02:36:52;;;;;;;7.72;6.25;;;;;;;13.35;81.03;98744.38;6193545;23;20032;-86
2020/12/22 02:39:19;;;;;;;6.53;5.93;;;;;;;13.37;80.85;98737.16;6219152;23;20028;-85
2020/12/22 02:41:45;;;;;;;7.57;6.88;;;;;;;13.40;81.00;98743.97;6215934;23;20021;-86
2020/12/22 02:44:11;;;;;;;7.68;6.97;;;;;;;13.42;81.20;98742.88;6189678;23;20021;-85
2020/12/22 02:46:37;;;;;;;8.10;6.63;;;;;;;13.47;81.11;98726.63;6190088;23;20031;-86
2020/12/22 02:49:04;;;;;;;6.18;5.47;;;;;;;13.52;81.00;98732.38;6220243;23;20028;-86
2020/12/22 02:51:31;;;;;;;6.55;6.05;;;;;;;13.55;80.97;98715.44;6189555;23;20092;-86
2020/12/22 02:53:57;;;;;;;6.82;5.07;;;;;;;13.58;80.96;98730.19;6219506;23;20017;-86
2020/12/22 02:56:24;;;;;;;9.13;6.45;;;;;;;13.59;81.21;98724.78;6199261;23;20470;-87
2020/12/22 02:58:51;;;;;;;5.72;5.22;;;;;;;13.63;81.28;98720.88;6198944;23;20398;-86
2020/12/22 03:01:20;;;;;;;6.35;4.78;;;;;;;13.65;81.53;98726.88;6221843;23;20047;-88
2020/12/22 03:03:46;;;;;;;6.82;4.68;;;;;;;13.70;81.24;98715.91;6220589;23;20017;-87
2020/12/22 03:06:13;;;;;;;4.30;3.90;;;;;;;13.75;81.26;98704.94;6191000;23;20352;-89
2020/12/22 03:08:39;;;;;;;5.55;3.85;;;;;;;13.80;81.45;98714.13;6191664;23;20492;-85
2020/12/22 03:11:05;;;;;;;4.90;4.40;;;;;;;13.81;81.36;98714.97;6189774;23;20028;-88
2020/12/22 03:13:31;;;;;;;5.32;3.58;;;;;;;13.87;81.16;98708.31;6189395;23;20020;-88
2020/12/22 03:15:57;;;;;;;4.72;4.32;;;;;;;13.89;81.23;98711.63;6215087;23;20031;-87
2020/12/22 03:18:24;;;;;;;4.30;3.90;;;;;;;13.92;81.19;98714.88;6190416;23;20020;-86
2020/12/22 03:20:50;;;;;;;4.75;4.25;;;;;;;13.95;81.18;98716.41;6218301;23;20024;-87
2020/12/22 03:23:16;;;;;;;4.25;3.90;;;;;;;13.99;81.48;98714.31;6217143;23;20017;-88
2020/12/22 03:25:42;;;;;;;3.92;3.42;;;;;;;14.02;81.35;98716.69;6189779;23;20098;-87
2020/12/22 03:28:08;;;;;;;4.57;4.10;;;;;;;14.04;81.14;98715.59;6216110;23;20024;-86
2020/12/22 03:30:34;;;;;;;3.90;3.60;;;;;;;14.07;81.04;98710.03;6217810;23;20020;-87
2020/12/22 03:33:00;;;;;;;6.05;3.25;;;;;;;14.11;81.03;98710.59;6191891;23;20023;-87
2020/12/22 03:35:27;;;;;;;3.38;3.17;;;;;;;14.14;81.08;98715.63;6215636;23;20020;-87
2020/12/22 03:37:53;;;;;;;3.00;2.78;;;;;;;14.18;81.12;98716.16;6194437;23;20032;-87
2020/12/22 03:40:20;;;;;;;4.10;2.67;;;;;;;14.20;81.10;98709.75;6191241;23;20023;-85
2020/12/22 03:42:46;;;;;;;2.50;2.30;;;;;;;14.24;81.08;98706.84;6217336;23;20017;-87
2020/12/22 03:45:12;;;;;;;2.38;2.17;;;;;;;14.28;81.03;98702.97;6189947;23;20027;-87
2020/12/22 03:47:43;;;;;;;2.92;2.72;;;;;;;14.29;80.95;98709.91;6215958;23;20020;-85
2020/12/22 03:50:21;;;;;;;2.65;2.45;;;;;;;14.31;80.70;98705.31;6217355;23;20048;-86
2020/12/22 03:52:47;;;;;;;2.40;2.20;;;;;;;14.33;81.25;98716.63;6189783;23;20021;-87
2020/12/22 03:55:14;;;;;;;2.17;1.98;;;;;;;14.36;81.21;98710.22;6216439;23;20024;-86
2020/12/22 03:57:40;;;;;;;2.15;1.92;;;;;;;14.39;81.22;98717.88;6218273;23;20059;-87
2020/12/22 04:00:07;;;;;;;2.63;2.33;;;;;;;14.41;81.24;98723.84;6191528;23;20021;-86
2020/12/22 04:02:34;;;;;;;4.38;2.50;;;;;;;14.41;81.08;98735.31;6215242;23;20378;-86
2020/12/22 04:05:00;;;;;;;2.58;2.38;;;;;;;14.45;81.12;98717.31;6215611;23;20021;-86
2020/12/22 04:07:26;;;;;;;2.85;2.10;;;;;;;14.48;80.92;98716.19;6215845;23;20020;-85
2020/12/22 04:09:52;;;;;;;1.90;1.80;;;;;;;14.49;80.94;98723.16;6189508;23;20025;-87
2020/12/22 04:12:18;;;;;;;1.88;1.67;;;;;;;14.51;80.94;98721.22;6189364;23;20025;-86
2020/12/22 04:14:44;;;;;;;2.17;1.60;;;;;;;14.53;80.88;98729.84;6189509;23;20020;-87
2020/12/22 04:17:12;;;;;;;2.60;1.77;;;;;;;14.53;80.75;98704.22;6189026;23;20467;-88
2020/12/22 04:19:38;;;;;;;1.92;1.80;;;;;;;14.55;80.80;98727.91;6189476;23;20024;-86
2020/12/22 04:22:04;;;;;;;1.67;1.58;;;;;;;14.57;80.52;98723.31;6189052;23;20031;-88
2020/12/22 04:24:30;;;;;;;2.63;1.92;;;;;;;14.57;80.63;98731.25;6190787;23;20131;-87
2020/12/22 04:26:56;;;;;;;1.92;1.75;;;;;;;14.56;80.82;98733.09;6189550;23;20020;-86
2020/12/22 04:29:22;;;;;;;1.92;1.75;;;;;;;14.57;80.68;98755.09;6218249;23;20352;-86
2020/12/22 04:31:48;;;;;;;1.88;1.77;;;;;;;14.59;80.59;98737.25;6215731;23;20100;-85
2020/12/22 04:34:15;;;;;;;2.08;1.70;;;;;;;14.58;80.61;98751.47;6216960;23;20095;-85
2020/12/22 04:36:41;;;;;;;1.60;1.50;;;;;;;14.58;80.54;98748.84;6193051;23;20021;-87
2020/12/22 04:39:07;;;;;;;1.58;1.48;;;;;;;14.58;80.62;98762.91;6191525;23;20478;-87
2020/12/22 04:41:36;;;;;;;2.05;1.67;;;;;;;14.59;80.25;98758.44;6217407;23;20025;-85
2020/12/22 04:44:03;;;;;;;1.73;1.35;;;;;;;14.59;80.33;98777.81;6191055;23;20027;-86
2020/12/22 04:46:31;;;;;;;1.60;1.50;;;;;;;14.58;80.38;98780.63;6191190;23;20099;-87
2020/12/22 04:48:58;;;;;;;1.45;1.30;;;;;;;14.59;80.57;98772.50;6191334;23;20392;-85
2020/12/22 04:51:25;;;;;;;2.40;1.38;;;;;;;14.59;80.53;98777.81;6217933;23;20034;-86
2020/12/22 04:54:07;;;;;;;1.45;1.10;;;;;;;14.60;80.33;98794.53;6220402;23;20023;-84
2020/12/22 04:56:36;;;;;;;1.42;1.00;;;;;;;14.60;80.12;98781.31;6219663;23;20095;-87
2020/12/22 04:59:02;;;;;;;1.02;0.90;;;;;;;14.61;80.03;98782.97;6192443;23;20100;-86
2020/12/22 05:01:28;;;;;;;1.80;0.80;;;;;;;14.61;79.96;98785.63;6190737;23;20523;-86
2020/12/22 05:03:54;;;;;;;2.55;0.90;;;;;;;14.61;80.04;98795.38;6216682;23;20021;-86
2020/12/22 05:06:22;;;;;;;2.00;1.13;;;;;;;14.58;79.61;98813.22;6219296;23;20020;-86
2020/12/22 05:08:48;;;;;;;0.60;0.60;;;;;;;14.58;79.86;98812.41;6191217;23;20024;-86
2020/12/22 05:11:16;;;;;;;0.50;0.50;;;;;;;14.58;79.80;98815.88;6192229;23;20021;-85
2020/12/22 05:13:43;;;;;;;0.60;0.60;;;;;;;14.58;79.71;98822.97;6217052;23;20021;-85
2020/12/22 05:16:10;;;;;;;0.82;0.73;;;;;;;14.58;79.69;98813.22;6190816;23;20115;-86
2020/12/22 05:18:36;;;;;;;0.80;0.80;;;;;;;14.56;79.70;98823.13;6217395;23;20075;-87
2020/12/22 05:21:18;;;;;;;2.05;0.70;;;;;;;14.56;79.63;98822.28;6197366;23;20025;-86
2020/12/22 05:23:47;;;;;;;4.05;0.70;;;;;;;14.55;79.59;98825.91;6190578;23;20023;-88
2020/12/22 05:26:16;;;;;;;1.23;0.70;;;;;;;14.56;79.60;98830.22;6190554;23;20039;-86
2020/12/22 05:28:42;;;;;;;0.60;0.60;;;;;;;14.56;79.47;98838.16;6190429;23;20024;-87
2020/12/22 05:31:15;;;;;;;1.33;0.90;;;;;;;14.53;79.32;98836.63;6193224;23;20036;-84
2020/12/22 05:33:44;;;;;;;0.55;0.55;;;;;;;14.54;79.46;98848.88;6194281;23;20027;-85
2020/12/22 05:36:10;;;;;;;0.70;0.70;;;;;;;14.54;79.65;98848.88;6190652;23;20024;-87
2020/12/22 05:38:37;;;;;;;2.40;0.80;;;;;;;14.53;79.67;98847.22;6190714;23;20025;-87
2020/12/22 05:41:06;;;;;;;0.73;0.73;;;;;;;14.53;79.67;98841.06;6192851;23;20329;-86
2020/12/22 05:43:37;;;;;;;1.98;0.90;;;;;;;14.49;79.22;98861.69;6189925;23;20020;-87
2020/12/22 05:46:03;;;;;;;1.00;0.90;;;;;;;14.52;79.42;98850.00;6191386;23;20032;-85
2020/12/22 05:48:29;;;;;;;1.70;1.10;;;;;;;14.53;79.71;98849.00;6191879;23;20025;-88
2020/12/22 05:51:00;;;;;;;1.45;1.35;;;;;;;14.50;79.55;98846.66;6194523;23;20337;-85
2020/12/22 05:53:27;;;;;;;1.20;1.10;;;;;;;14.53;79.79;98843.72;6218765;23;20039;-86
2020/12/22 05:55:53;;;;;;;3.13;1.20;;;;;;;14.52;79.85;98858.78;6192913;23;20080;-86
2020/12/22 05:58:19;;;;;;;1.13;1.02;;;;;;;14.53;79.80;98856.97;6216431;23;20024;-87
2020/12/22 06:00:48;;;;;;;0.90;0.80;;;;;;;14.52;79.66;98855.28;6216638;23;20394;-87
2020/12/22 06:03:15;;;;;;;1.35;1.00;;;;;;;14.52;79.88;98868.53;6189829;23;20463;-84
2020/12/22 06:05:44;;;;;;;1.10;1.10;;;;;;;14.53;79.98;98870.19;6190639;23;20351;-87
2020/12/22 06:08:16;;;;;;;1.45;1.05;;;;;;;14.50;79.71;98868.66;6193111;23;20056;-85
2020/12/22 06:10:44;;;;;;;1.90;1.00;;;;;;;14.51;79.77;98874.81;6192440;23;20027;-87
2020/12/22 06:13:12;;;;;;;1.00;0.90;;;;;;;14.52;79.77;98856.13;6217100;23;20074;-86
2020/12/22 06:15:39;;;;;;;0.73;0.73;;;;;;;14.54;79.73;98879.84;6222614;23;20024;-86
2020/12/22 06:18:06;;;;;;;0.95;0.90;;;;;;;14.54;79.67;98879.84;6216972;23;20025;-88
2020/12/22 06:20:32;;;;;;;0.80;0.65;;;;;;;14.54;79.55;98879.84;6189892;23;20024;-85
2020/12/22 06:23:08;;;;;;;0.70;0.70;;;;;;;14.47;78.92;98892.78;6219732;23;20032;-86
2020/12/22 06:25:35;;;;;;;0.68;0.63;;;;;;;14.52;79.42;98882.63;6190238;23;20021;-87
2020/12/22 06:28:14;;;;;;;0.75;0.75;;;;;;;14.53;79.42;98894.03;6190029;23;20479;-86
2020/12/22 06:30:40;;;;;;;0.75;0.75;;;;;;;14.52;79.46;98897.66;6216189;23;20040;-85
2020/12/22 06:33:19;;;;;;;1.38;0.82;;;;;;;14.50;78.86;98912.84;6190138;23;20486;-86
2020/12/22 06:36:04;;;;;;;0.82;0.80;;;;;;;14.48;78.88;98902.41;6189726;23;20031;-87
2020/12/22 06:38:49;;;;;;;2.17;0.80;;;;;;;14.49;78.85;98897.91;6190739;23;20039;-86
2020/12/22 06:41:33;;;;;;;0.93;0.60;;;;;;;14.46;78.56;98915.75;6215957;23;20521;-86
2020/12/22 06:44:21;;;;;;;0.88;0.68;;;;;;;14.46;78.75;98910.47;6216127;23;20027;-88
2020/12/22 06:46:58;;;;;;;0.50;0.50;;;;;;;14.47;78.91;98916.63;6191465;23;20025;-88
2020/12/22 06:49:51;;;;;;;1.75;0.88;;;;;;;14.42;78.29;98908.22;6190305;23;20021;-87
2020/12/22 06:52:33;;;;;;;0.73;0.70;;;;;;;14.44;78.40;98916.88;6191675;23;20016;-88
2020/12/22 06:55:00;;;;;;;1.20;0.73;;;;;;;14.48;78.87;98933.31;6191054;23;20033;-87
2020/12/22 06:57:58;;;;;;;1.15;0.70;;;;;;;14.42;78.46;98927.59;6191709;23;20024;-86
2020/12/22 07:00:27;;;;;;;2.33;0.63;;;;;;;14.45;78.79;98943.22;6134869;23;20021;-87
2020/12/22 07:03:13;;;;;;;2.90;0.95;;;;;;;14.45;78.68;98945.03;6217011;23;20436;-87
2020/12/22 07:05:47;;;;;;;1.80;0.85;;;;;;;14.43;78.38;98946.97;6189479;23;20028;-87
2020/12/22 07:08:16;;;;;;;6.72;1.23;;;;;;;14.44;78.97;98949.47;6191800;23;20021;-87
2020/12/22 07:10:45;;;;;;;1.90;0.90;;;;;;;14.45;78.86;98950.31;6189861;23;20095;-88
2020/12/22 07:13:13;;;;;;;1.08;0.88;;;;;;;14.46;78.95;98949.34;6189710;23;20017;-87
2020/12/22 07:15:47;;;;;;;1.38;1.00;;;;;;;14.44;78.51;98965.34;6215528;23;20028;-88
2020/12/22 07:18:20;;;;;;;1.20;1.02;;;;;;;14.46;78.82;98951.97;6218525;23;20031;-89
2020/12/22 07:20:58;;;;;;;4.53;1.63;;;;;;;14.45;78.31;98951.16;6190440;23;20025;-86
2020/12/22 07:23:24;;;;;;;1.23;1.08;;;;;;;14.46;78.58;98950.19;6189647;23;20080;-88
2020/12/22 07:26:09;;;;;;;3.38;1.25;;;;;;;14.45;78.30;98961.75;6216960;23;20078;-86
2020/12/22 07:28:40;;;;;;;4.20;1.50;;;;;;;14.46;78.63;98958.13;6215687;23;20021;-87
2020/12/22 07:31:08;;;;;;;4.93;1.80;;;;;;;14.45;78.53;98972.34;6216369;23;20024;-89
2020/12/22 07:33:35;;;;;;;5.50;1.85;;;;;;;14.44;78.79;98968.00;6217217;23;20021;-87
2020/12/22 07:36:01;;;;;;;4.60;1.48;;;;;;;14.45;78.83;98979.44;6215503;23;20067;-88
2020/12/22 07:38:44;;;;;;;7.88;2.15;;;;;;;14.44;78.81;98991.84;6193792;23;20021;-87
2020/12/22 07:41:24;;;;;;;5.63;1.60;;;;;;;14.40;78.10;98987.81;6190376;23;20035;-88
2020/12/22 07:44:05;;;;;;;3.22;1.83;;;;;;;14.40;77.66;98990.44;6189658;23;20021;-86
2020/12/22 07:46:32;;;;;;;3.70;1.50;;;;;;;14.46;78.73;99003.16;6216320;23;20447;-88
2020/12/22 07:49:02;;;;;;;3.20;1.73;;;;;;;14.44;78.04;98991.84;6192154;23;20028;-87
2020/12/22 07:51:29;;;;;;;5.50;1.83;;;;;;;14.46;78.55;98992.56;6192313;23;20027;-88
2020/12/22 07:54:06;;;;;;;6.20;2.28;;;;;;;14.41;77.07;99008.00;6215389;23;20017;-85
2020/12/22 07:56:35;;;;;;;2.90;2.03;;;;;;;14.46;78.36;99007.59;6218418;23;20020;-87
2020/12/22 07:59:03;;;;;;;5.00;2.30;;;;;;;14.46;78.56;99004.94;6217280;23;20460;-87
2020/12/22 08:01:31;;;;;;;5.25;2.47;;;;;;;14.49;78.43;99007.34;6190959;23;20023;-88
2020/12/22 08:03:57;;;;;;;6.25;2.40;;;;;;;14.50;78.43;99016.94;6189732;23;20021;-86
2020/12/22 08:06:24;;;;;;;3.45;2.90;;;;;;;14.51;78.31;99018.66;6191424;23;20021;-88
2020/12/22 08:08:58;;;;;;;4.93;3.25;;;;;;;14.49;77.92;99020.56;6218741;23;20025;-87
2020/12/22 08:11:25;;;;;;;4.03;3.50;;;;;;;14.51;78.43;99031.03;6217854;23;20353;-87
2020/12/22 08:13:52;;;;;;;4.88;3.58;;;;;;;14.51;78.56;99025.75;6191144;23;20027;-87
2020/12/22 08:16:19;;;;;;;6.57;4.50;;;;;;;14.49;78.67;99033.81;6194369;23;20031;-89
2020/12/22 08:18:46;;;;;;;5.93;4.07;;;;;;;14.48;78.54;99034.78;6192717;23;20029;-86
2020/12/22 08:21:15;;;;;;;5.95;4.50;;;;;;;14.49;78.51;99030.31;6194474;23;20025;-87
2020/12/22 08:23:43;;;;;;;6.07;4.43;;;;;;;14.50;78.56;99037.31;6218719;23;20021;-87
2020/12/22 08:26:10;;;;;;;6.78;4.88;;;;;;;14.50;78.86;99050.56;6194711;23;20479;-86
2020/12/22 08:28:37;;;;;;;5.75;4.43;;;;;;;14.51;78.73;99046.94;6191029;23;20031;-87
2020/12/22 08:31:10;;;;;;;4.90;4.10;;;;;;;14.49;78.20;99052.34;6190851;23;20070;-88
2020/12/22 08:33:39;;;;;;;7.32;4.75;;;;;;;14.52;78.51;99059.19;6218055;23;20039;-87
2020/12/22 08:36:11;;;;;;;7.15;4.72;;;;;;;14.52;78.32;99068.00;6221560;23;20031;-87
2020/12/22 08:38:37;;;;;;;4.43;4.03;;;;;;;14.54;78.70;99068.69;6191263;23;20028;-86
2020/12/22 08:41:18;;;;;;;8.07;4.45;;;;;;;14.52;78.05;99070.63;6190580;23;20043;-87
2020/12/22 08:43:54;;;;;;;9.18;3.95;;;;;;;14.55;78.37;99072.19;6193025;23;20479;-87
2020/12/22 08:46:22;;;;;;;7.32;4.10;;;;;;;14.61;79.03;99074.31;6193564;23;20024;-87
2020/12/22 08:48:48;;;;;;;13.40;4.80;;;;;;;14.61;78.69;99081.44;6196861;23;20024;-87
2020/12/22 08:51:25;;;;;;;10.75;4.70;;;;;;;14.61;77.97;99084.06;6190859;23;20025;-86
2020/12/22 08:53:53;;;;;;;5.60;4.00;;;;;;;14.66;78.58;99090.63;6218555;23;20024;-86
2020/12/22 08:56:26;;;;;;;10.90;4.50;;;;;;;14.66;77.98;99101.22;6195589;23;20103;-87
2020/12/22 08:58:58;;;;;;;5.70;4.07;;;;;;;14.66;77.80;99101.22;6217485;23;20320;-86
2020/12/22 09:01:26;;;;;;;5.85;4.32;;;;;;;14.67;78.17;99110.88;6190964;23;20044;-87
2020/12/22 09:03:58;;;;;;;5.43;4.30;;;;;;;14.66;77.71;99101.22;6190355;23;20444;-88
2020/12/22 09:06:35;;;;;;;5.28;4.03;;;;;;;14.67;77.52;99096.78;6195505;23;20021;-86
2020/12/22 09:09:11;;;;;;;4.63;3.10;;;;;;;14.70;78.05;99094.69;6192549;23;20095;-87
2020/12/22 09:11:38;;;;;;;7.45;3.40;;;;;;;14.71;78.21;99099.06;6217600;23;20021;-85
2020/12/22 09:14:07;;;;;;;7.90;3.72;;;;;;;14.72;78.02;99106.03;6194504;23;20052;-86
2020/12/22 09:16:45;;;;;;;5.65;3.72;;;;;;;14.71;77.26;99103.50;6219089;23;20042;-86
2020/12/22 09:19:12;;;;;;;4.35;2.80;;;;;;;14.76;77.95;99105.78;6190993;23;20028;-86
2020/12/22 09:21:39;;;;;;;5.75;2.92;;;;;;;14.77;77.97;99108.28;6190776;23;20029;-84
2020/12/22 09:24:06;;;;;;;4.65;2.55;;;;;;;14.78;78.14;99111.78;6216821;23;20045;-85
2020/12/22 09:26:33;;;;;;;3.42;2.67;;;;;;;14.81;78.09;99117.66;6190782;23;20027;-86
2020/12/22 09:28:59;;;;;;;3.83;2.30;;;;;;;14.83;77.68;99117.53;6216637;23;20030;-86
2020/12/22 09:31:27;;;;;;;4.18;2.15;;;;;;;14.85;77.65;99127.03;6220859;23;20031;-86
2020/12/22 09:33:54;;;;;;;3.05;2.15;;;;;;;14.87;77.42;99134.84;6216575;23;20013;-86
2020/12/22 09:36:21;;;;;;;5.07;2.08;;;;;;;14.92;77.44;99134.47;6226052;23;20021;-86
2020/12/22 09:38:47;;;;;;;3.40;1.85;;;;;;;14.93;77.26;99131.69;6195945;23;20020;-86
2020/12/22 09:41:13;;;;;;;2.58;1.58;;;;;;;14.96;77.17;99139.34;6218919;23;20024;-87
2020/12/22 09:43:39;;;;;;;5.22;1.63;;;;;;;14.94;76.45;99135.16;6190552;23;20024;-86
2020/12/22 09:46:20;;;;;;;3.90;1.35;;;;;;;14.96;76.41;99138.53;6196758;23;20027;-85
2020/12/22 09:48:46;;;;;;;3.75;1.48;;;;;;;14.94;76.41;99148.41;6192557;23;20025;-86
2020/12/22 09:51:16;;;;;;;4.75;1.90;;;;;;;14.89;74.07;99148.81;6219243;23;20325;-86
2020/12/22 09:53:42;;;;;;;5.05;1.42;;;;;;;14.91;76.29;99144.22;6189807;23;20486;-84
2020/12/22 09:56:08;;;;;;;3.65;1.30;;;;;;;14.90;76.28;99169.06;6216747;23;20024;-85
2020/12/22 09:58:34;;;;;;;3.58;1.40;;;;;;;14.88;76.19;99164.84;6190494;23;20028;-86
2020/12/22 10:01:01;;;;;;;6.05;1.20;;;;;;;14.86;76.23;99183.53;6216780;23;20052;-85
2020/12/22 10:03:27;;;;;;;3.33;1.10;;;;;;;14.85;75.73;99165.94;6218463;23;20016;-86
2020/12/22 10:05:53;;;;;;;3.00;1.20;;;;;;;14.77;75.65;99177.19;6196226;23;20031;-86
2020/12/22 10:08:19;;;;;;;3.13;1.10;;;;;;;14.73;75.81;99173.91;6198590;23;20028;-87
2020/12/22 10:10:45;;;;;;;2.88;1.20;;;;;;;14.69;76.15;99180.44;6196511;23;20456;-86
2020/12/22 10:13:11;;;;;;;2.70;1.10;;;;;;;14.65;76.23;99189.63;6222133;23;20021;-87
2020/12/22 10:15:38;;;;;;;2.60;1.25;;;;;;;14.58;76.08;99197.25;6217502;23;20024;-86
2020/12/22 10:18:09;;;;;;;5.85;1.63;;;;;;;14.53;76.30;99203.88;6189950;23;20024;-86
2020/12/22 10:20:36;;;;;;;3.80;1.13;;;;;;;14.49;76.59;99202.44;6189901;23;20145;-88
2020/12/22 10:23:03;;;;;;;3.75;1.50;;;;;;;14.43;76.73;99207.28;6227683;23;20017;-87
2020/12/22 10:25:31;;;;;;;2.30;1.20;;;;;;;14.38;76.88;99209.47;6197401;23;20027;-86
2020/12/22 10:27:58;;;;;;;3.15;1.20;;;;;;;14.36;77.06;99213.22;6189753;23;20048;-86
2020/12/22 10:30:25;;;;;;;3.42;1.30;;;;;;;14.30;77.28;99202.16;6192975;23;20020;-86
2020/12/22 10:32:52;;;;;;;4.68;1.30;;;;;;;14.28;77.27;99203.25;6190928;23;20035;-86
2020/12/22 10:35:18;;;;;;;5.50;1.30;;;;;;;14.25;77.52;99208.81;6193012;23;20463;-86
2020/12/22 10:37:45;;;;;;;6.25;1.67;;;;;;;14.22;77.45;99212.53;6189714;23;20071;-86
2020/12/22 10:40:11;;;;;;;6.47;1.50;;;;;;;14.22;77.74;99209.03;6189522;23;20016;-87
2020/12/22 10:42:37;;;;;;;3.53;1.33;;;;;;;14.19;77.64;99207.50;6189901;23;20452;-86
2020/12/22 10:45:04;;;;;;;3.30;1.45;;;;;;;14.18;77.78;99214.59;6216078;23;20024;-86
2020/12/22 10:47:30;;;;;;;7.28;1.55;;;;;;;14.18;77.98;99225.19;6189493;23;20074;-86
2020/12/22 10:49:57;;;;;;;2.50;1.30;;;;;;;14.17;78.05;99226.13;6189272;23;20016;-86
2020/12/22 10:52:23;;;;;;;7.53;2.03;;;;;;;14.17;78.15;99228.78;6189981;23;20100;-87
2020/12/22 10:54:53;;;;;;;3.28;1.60;;;;;;;14.16;78.09;99235.06;6190908;23;20031;-86
2020/12/22 10:57:19;;;;;;;5.38;1.98;;;;;;;14.15;78.11;99246.59;6197537;23;20075;-86
2020/12/22 10:59:45;;;;;;;6.53;2.00;;;;;;;14.15;78.10;99241.31;6223620;23;20025;-86
2020/12/22 11:02:11;;;;;;;6.15;1.75;;;;;;;14.15;78.06;99241.31;6216101;23;20020;-86
2020/12/22 11:04:38;;;;;;;8.13;2.47;;;;;;;14.14;78.12;99250.22;6216179;23;20021;-87
2020/12/22 11:07:12;;;;;;;10.25;2.45;;;;;;;14.13;77.93;99259.09;6189454;23;20017;-87
2020/12/22 11:09:39;;;;;;;8.90;2.30;;;;;;;14.12;78.24;99262.72;6189687;23;20043;-86
2020/12/22 11:12:06;;;;;;;7.80;2.40;;;;;;;14.12;78.37;99270.66;6192138;23;20016;-87
2020/12/22 11:14:33;;;;;;;7.10;2.28;;;;;;;14.13;78.21;99271.53;6220756;23;20455;-86
2020/12/22 11:17:00;;;;;;;10.23;3.22;;;;;;;14.13;78.44;99269.69;6191857;23;20104;-86
2020/12/22 11:19:29;;;;;;;7.97;2.20;;;;;;;14.13;78.61;99280.28;6189928;23;20023;-87
2020/12/22 11:21:56;;;;;;;10.70;2.65;;;;;;;14.16;78.72;99281.84;6190039;23;20531;-86
2020/12/22 11:24:22;;;;;;;6.43;2.20;;;;;;;14.18;78.96;99277.28;6190917;23;20013;-88
2020/12/22 11:26:48;;;;;;;4.63;2.40;;;;;;;14.21;78.88;99282.34;6192049;23;20027;-87
2020/12/22 11:29:15;;;;;;;7.75;2.20;;;;;;;14.23;78.64;99290.97;6219172;23;20043;-87
2020/12/22 11:31:47;;;;;;;5.53;2.15;;;;;;;14.23;77.97;99300.72;6192678;23;20107;-86
2020/12/22 11:34:17;;;;;;;5.70;1.98;;;;;;;14.26;78.06;99295.19;6216070;23;20017;-86
2020/12/22 11:36:54;;;;;;;8.10;1.90;;;;;;;14.22;77.25;99293.75;6215629;23;20021;-86
2020/12/22 11:39:22;;;;;;;2.92;1.75;;;;;;;14.23;77.55;99298.06;6215658;23;20016;-86
2020/12/22 11:41:48;;;;;;;3.80;1.65;;;;;;;14.19;77.65;99298.34;6215719;23;20391;-86
2020/12/22 11:44:16;;;;;;;2.42;1.00;;;;;;;14.16;77.68;99306.50;6190747;23;20066;-86
2020/12/22 11:46:44;;;;;;;4.18;1.20;;;;;;;14.13;77.76;99304.09;6193174;23;20021;-87
2020/12/22 11:49:12;;;;;;;1.65;0.90;;;;;;;14.10;77.49;99296.44;6191254;23;20047;-87